Bismarck, Illinois
Current Conditions -  °F | °C
As of 10:15 AM on Thursday 23 Oct 2014 (Local Time) from KDNV Reporting Station
Clear Clear  
Wind Chill: 51°   Ceiling: Unl
Heat Index: 51°   Visibility: 10mi
Dew Point: 44°   Wind: 9mph
Humidity: 77%   Direction: 180°S
Pressure: 30.21"   Gusts: NA
Location:  40.26°N, 87.61°W
Report Text: KDNV 231515Z AUTO 18008KT 10SM CLR 10/07 A3021 RMK AO2 T01040065
Loading
Personal Weather Stations






























Interactive Weather Map
Tropical Storm Tracking
New forecast layout! Learn more

10-Day Weather Forecast

Advertisements
Track Severe Weather on mobile